createdAt,value
2023-04-30T00:01:20.980Z,100379.20
2023-04-30T00:03:47.349Z,100377.52
2023-04-30T00:06:13.798Z,100381.08
2023-04-30T00:08:40.085Z,100383.08
2023-04-30T00:11:06.400Z,100384.04
2023-04-30T00:13:32.728Z,100385.01
2023-04-30T00:15:59.007Z,100382.23
2023-04-30T00:18:25.346Z,100384.42
2023-04-30T00:20:52.778Z,100384.67
2023-04-30T00:23:19.188Z,100387.39
2023-04-30T00:25:45.487Z,100385.84
2023-04-30T00:28:11.787Z,100388.20
2023-04-30T00:30:38.062Z,100393.72
2023-04-30T00:33:04.970Z,100390.77
2023-04-30T00:35:31.274Z,100395.92
2023-04-30T00:37:57.575Z,100393.70
2023-04-30T00:40:23.902Z,100401.81
2023-04-30T00:42:51.679Z,100396.77
2023-04-30T00:45:21.285Z,100397.16
2023-04-30T00:47:47.985Z,100400.56
2023-04-30T00:50:15.598Z,100403.45
2023-04-30T00:52:42.767Z,100403.50
2023-04-30T00:55:11.086Z,100405.49
2023-04-30T00:57:37.984Z,100407.13
2023-04-30T01:00:05.601Z,100405.09
2023-04-30T01:02:32.252Z,100405.66
2023-04-30T01:04:58.767Z,100405.71
2023-04-30T01:07:27.623Z,100402.29
2023-04-30T01:09:54.596Z,100402.00
2023-04-30T01:12:35.354Z,100402.70
2023-04-30T01:15:17.934Z,100399.42
2023-04-30T01:17:52.539Z,100404.58
2023-04-30T01:20:19.301Z,100401.80
2023-04-30T01:22:51.750Z,100405.89
2023-04-30T01:25:55.944Z,100415.98
2023-04-30T01:28:24.157Z,100416.88
2023-04-30T01:30:51.195Z,100415.70
2023-04-30T01:33:18.109Z,100418.37
2023-04-30T01:36:09.343Z,100419.66
2023-04-30T01:39:04.644Z,100423.27
2023-04-30T01:41:40.668Z,100421.55
2023-04-30T01:44:25.283Z,100421.47
2023-04-30T01:47:14.966Z,100425.73
2023-04-30T01:49:57.128Z,100422.61
2023-04-30T01:52:26.495Z,100423.36
2023-04-30T01:55:04.005Z,100428.02
2023-04-30T01:57:43.434Z,100429.83
2023-04-30T02:00:11.289Z,100435.52
2023-04-30T02:02:40.301Z,100437.52
2023-04-30T02:05:07.051Z,100438.44
2023-04-30T02:07:40.390Z,100440.77
2023-04-30T02:10:08.053Z,100437.98
2023-04-30T02:12:35.013Z,100438.91
2023-04-30T02:15:02.722Z,100440.73
2023-04-30T02:17:29.060Z,100445.01
2023-04-30T02:19:55.575Z,100443.30
2023-04-30T02:22:22.304Z,100448.11
2023-04-30T02:24:48.717Z,100448.34
2023-04-30T02:27:15.527Z,100449.80
2023-04-30T02:29:41.960Z,100454.11
2023-04-30T02:32:08.526Z,100456.82
2023-04-30T02:34:34.856Z,100456.40
2023-04-30T02:37:03.121Z,100460.69
2023-04-30T02:39:29.404Z,100468.65
2023-04-30T02:41:55.648Z,100469.29
2023-04-30T02:44:21.962Z,100475.85
2023-04-30T02:46:48.283Z,100479.63
2023-04-30T02:49:14.642Z,100486.90
2023-04-30T02:51:40.913Z,100492.42
2023-04-30T02:54:07.310Z,100491.84
2023-04-30T02:56:34.103Z,100499.13
2023-04-30T02:59:00.956Z,100501.48
2023-04-30T03:01:27.253Z,100504.75
2023-04-30T03:03:53.629Z,100507.77
2023-04-30T03:06:20.154Z,100512.04
2023-04-30T03:08:46.720Z,100513.14
2023-04-30T03:11:13.114Z,100510.96
2023-04-30T03:13:40.399Z,100516.83
2023-04-30T03:16:06.821Z,100520.76
2023-04-30T03:18:33.198Z,100524.52
2023-04-30T03:20:59.585Z,100528.10
2023-04-30T03:23:27.500Z,100527.48
2023-04-30T03:25:53.942Z,100528.29
2023-04-30T03:28:20.748Z,100533.83
2023-04-30T03:30:46.982Z,100536.05
2023-04-30T03:33:13.355Z,100543.75
2023-04-30T03:35:39.675Z,100545.85
2023-04-30T03:38:06.014Z,100557.35
2023-04-30T03:40:32.333Z,100564.98
2023-04-30T03:42:58.596Z,100566.98
2023-04-30T03:45:24.962Z,100568.06
2023-04-30T03:47:51.970Z,100573.38
2023-04-30T03:50:18.660Z,100579.21
2023-04-30T03:52:45.633Z,100582.75
2023-04-30T03:55:13.045Z,100586.05
2023-04-30T03:57:40.007Z,100587.96
2023-04-30T04:00:12.838Z,100587.23
2023-04-30T04:02:44.378Z,100595.90
2023-04-30T04:05:11.006Z,100602.92
2023-04-30T04:07:37.561Z,100605.52
2023-04-30T04:10:04.200Z,100610.74
2023-04-30T04:12:30.793Z,100618.74
2023-04-30T04:14:57.247Z,100621.30
2023-04-30T04:17:23.727Z,100624.75
2023-04-30T04:19:50.248Z,100632.20
2023-04-30T04:22:17.123Z,100638.61
2023-04-30T04:24:44.103Z,100641.64
2023-04-30T04:27:11.390Z,100642.02
2023-04-30T04:29:37.692Z,100641.92
2023-04-30T04:32:05.588Z,100653.34
2023-04-30T04:34:32.683Z,100647.93
2023-04-30T04:36:59.111Z,100654.11
2023-04-30T04:39:25.461Z,100657.66
2023-04-30T04:41:52.239Z,100659.81
2023-04-30T04:44:18.887Z,100665.77
2023-04-30T04:46:45.216Z,100671.08
2023-04-30T04:49:11.950Z,100676.35
2023-04-30T04:51:39.013Z,100676.92
2023-04-30T04:54:05.652Z,100680.63
2023-04-30T04:56:32.054Z,100682.23
2023-04-30T04:58:58.623Z,100687.71
2023-04-30T05:01:25.253Z,100687.24
2023-04-30T05:03:52.991Z,100694.65
2023-04-30T05:06:19.412Z,100698.04
2023-04-30T05:08:45.823Z,100696.14
2023-04-30T05:11:13.095Z,100701.62
2023-04-30T05:13:41.353Z,100704.98
2023-04-30T05:16:07.754Z,100709.21
2023-04-30T05:18:34.142Z,100715.73
2023-04-30T05:21:00.383Z,100718.55
2023-04-30T05:23:27.713Z,100723.81
2023-04-30T05:25:54.642Z,100724.52
2023-04-30T05:28:20.995Z,100732.05
2023-04-30T05:30:47.340Z,100732.88
2023-04-30T05:33:13.731Z,100733.73
2023-04-30T05:35:40.067Z,100737.73
2023-04-30T05:38:06.366Z,100740.33
2023-04-30T05:40:33.197Z,100738.89
2023-04-30T05:42:59.557Z,100743.96
2023-04-30T05:45:25.987Z,100749.89
2023-04-30T05:47:52.603Z,100752.82
2023-04-30T05:50:18.916Z,100755.23
2023-04-30T05:52:45.616Z,100760.77
2023-04-30T05:55:12.105Z,100760.77
2023-04-30T05:57:38.428Z,100765.97
2023-04-30T06:00:08.498Z,100768.05
2023-04-30T06:02:41.055Z,100768.19
2023-04-30T06:05:08.209Z,100770.27
2023-04-30T06:07:34.530Z,100772.13
2023-04-30T06:10:00.871Z,100775.60
2023-04-30T06:12:27.211Z,100775.23
2023-04-30T06:14:53.602Z,100772.02
2023-04-30T06:17:20.094Z,100773.24
2023-04-30T06:19:46.417Z,100775.92
2023-04-30T06:22:12.733Z,100782.86
2023-04-30T06:24:39.044Z,100784.04
2023-04-30T06:27:06.401Z,100787.10
2023-04-30T06:29:32.721Z,100788.95
2023-04-30T06:31:59.013Z,100783.20
2023-04-30T06:34:26.019Z,100781.55
2023-04-30T06:36:52.298Z,100780.37
2023-04-30T06:39:21.678Z,100781.67
2023-04-30T06:41:47.977Z,100783.46
2023-04-30T06:44:14.420Z,100781.04
2023-04-30T06:46:43.534Z,100783.50
2023-04-30T06:49:10.277Z,100785.77
2023-04-30T06:51:36.643Z,100787.27
2023-04-30T06:54:03.060Z,100785.75
2023-04-30T06:56:29.317Z,100782.40
2023-04-30T06:58:55.592Z,100785.02
2023-04-30T07:01:22.023Z,100785.41
2023-04-30T07:03:48.587Z,100784.45
2023-04-30T07:06:15.602Z,100786.00
2023-04-30T07:08:43.199Z,100786.30
2023-04-30T07:11:09.612Z,100789.16
2023-04-30T07:13:35.876Z,100785.05
2023-04-30T07:16:02.247Z,100794.73
2023-04-30T07:18:28.552Z,100795.80
2023-04-30T07:20:56.059Z,100798.73
2023-04-30T07:23:22.403Z,100801.13
2023-04-30T07:25:48.721Z,100799.55
2023-04-30T07:28:15.022Z,100802.52
2023-04-30T07:30:41.978Z,100808.80
2023-04-30T07:33:08.849Z,100802.44
2023-04-30T07:35:35.815Z,100805.02
2023-04-30T07:38:02.093Z,100808.40
2023-04-30T07:40:35.811Z,100813.44
2023-04-30T07:43:04.003Z,100810.84
2023-04-30T07:45:31.189Z,100803.88
2023-04-30T07:47:57.554Z,100809.61
2023-04-30T07:50:23.905Z,100814.98
2023-04-30T07:52:50.212Z,100822.41
2023-04-30T07:55:16.551Z,100823.65
2023-04-30T07:57:42.878Z,100824.62
2023-04-30T08:00:09.420Z,100822.19
2023-04-30T08:02:38.784Z,100823.99
2023-04-30T08:05:05.671Z,100829.11
2023-04-30T08:07:31.922Z,100821.91
2023-04-30T08:09:58.211Z,100830.16
2023-04-30T08:12:24.608Z,100828.27
2023-04-30T08:15:02.279Z,100829.18
2023-04-30T08:17:34.312Z,100836.30
2023-04-30T08:20:03.257Z,100830.23
2023-04-30T08:22:30.037Z,100830.36
2023-04-30T08:24:56.374Z,100834.54
2023-04-30T08:27:22.878Z,100839.87
2023-04-30T08:29:49.216Z,100842.23
2023-04-30T08:32:15.593Z,100844.02
2023-04-30T08:34:42.814Z,100847.76
2023-04-30T08:37:09.141Z,100848.25
2023-04-30T08:39:35.413Z,100850.38
2023-04-30T08:42:05.364Z,100854.46
2023-04-30T08:44:32.581Z,100862.32
2023-04-30T08:47:00.890Z,100864.48
2023-04-30T08:49:27.738Z,100860.98
2023-04-30T08:51:54.392Z,100861.65
2023-04-30T08:54:28.538Z,100863.14
2023-04-30T08:56:54.840Z,100862.67
2023-04-30T08:59:22.352Z,100859.52
2023-04-30T09:01:50.179Z,100870.73
2023-04-30T09:04:18.462Z,100869.81
2023-04-30T09:06:44.897Z,100865.42
2023-04-30T09:09:13.422Z,100862.25
2023-04-30T09:11:41.361Z,100862.76
2023-04-30T09:14:08.003Z,100872.05
2023-04-30T09:16:49.510Z,100874.86
2023-04-30T09:19:27.173Z,100876.48
2023-04-30T09:21:54.197Z,100884.70
2023-04-30T09:24:20.645Z,100882.98
2023-04-30T09:26:47.147Z,100885.42
2023-04-30T09:29:14.027Z,100884.16
2023-04-30T09:31:46.735Z,100878.29
2023-04-30T09:34:13.882Z,100875.30
2023-04-30T09:37:00.466Z,100878.27
2023-04-30T09:39:26.867Z,100884.32
2023-04-30T09:42:07.255Z,100885.34
2023-04-30T09:44:37.680Z,100882.43
2023-04-30T09:47:04.747Z,100890.74
2023-04-30T09:49:31.370Z,100885.35
2023-04-30T09:52:00.162Z,100886.92
2023-04-30T09:54:31.348Z,100881.63
2023-04-30T09:57:00.782Z,100887.37
2023-04-30T09:59:34.442Z,100885.30
2023-04-30T10:02:02.710Z,100880.39
2023-04-30T10:04:37.435Z,100882.90
2023-04-30T10:07:09.557Z,100879.54
2023-04-30T10:09:47.465Z,100878.60
2023-04-30T10:12:15.626Z,100876.23
2023-04-30T10:14:54.826Z,100872.55
2023-04-30T10:17:26.134Z,100869.98
2023-04-30T10:19:58.821Z,100865.19
2023-04-30T10:22:25.392Z,100865.55
2023-04-30T10:24:51.707Z,100868.48
2023-04-30T10:27:18.419Z,100865.98
2023-04-30T10:29:45.789Z,100872.49
2023-04-30T10:32:13.090Z,100872.54
2023-04-30T10:34:50.939Z,100872.77
2023-04-30T10:37:27.718Z,100878.23
2023-04-30T10:39:55.243Z,100873.11
2023-04-30T10:42:21.839Z,100873.55
2023-04-30T10:44:48.344Z,100872.51
2023-04-30T10:47:16.252Z,100870.75
2023-04-30T10:49:47.558Z,100878.23
2023-04-30T10:52:13.995Z,100879.73
2023-04-30T10:54:49.382Z,100872.39
2023-04-30T10:57:17.627Z,100870.55
2023-04-30T10:59:52.141Z,100877.46
2023-04-30T11:02:19.085Z,100879.55
2023-04-30T11:05:07.388Z,100878.38
2023-04-30T11:07:34.192Z,100875.32
2023-04-30T11:10:01.815Z,100885.73
2023-04-30T11:12:28.883Z,100893.41
2023-04-30T11:15:11.921Z,100890.23
2023-04-30T11:17:38.729Z,100893.40
2023-04-30T11:20:06.143Z,100893.08
2023-04-30T11:22:35.553Z,100890.73
2023-04-30T11:25:10.011Z,100894.54
2023-04-30T11:27:38.059Z,100896.39
2023-04-30T11:30:12.042Z,100897.65
2023-04-30T11:32:39.431Z,100886.86
2023-04-30T11:35:06.878Z,100892.28
2023-04-30T11:37:38.840Z,100886.69
2023-04-30T11:40:07.867Z,100886.77
2023-04-30T11:42:34.749Z,100887.59
2023-04-30T11:45:16.820Z,100893.25
2023-04-30T11:47:46.034Z,100895.95
2023-04-30T11:50:14.702Z,100898.77
2023-04-30T11:52:42.669Z,100902.37
2023-04-30T11:55:17.414Z,100907.42
2023-04-30T11:57:46.046Z,100899.61
2023-04-30T12:00:17.709Z,100894.40
2023-04-30T12:02:45.944Z,100895.85
2023-04-30T12:05:20.875Z,100895.05
2023-04-30T12:07:55.281Z,100901.86
2023-04-30T12:10:22.896Z,100906.19
2023-04-30T12:12:52.520Z,100905.32
2023-04-30T12:15:27.342Z,100905.73
2023-04-30T12:17:56.316Z,100908.47
2023-04-30T12:20:26.724Z,100905.48
2023-04-30T12:22:53.641Z,100906.95
2023-04-30T12:25:22.220Z,100906.76
2023-04-30T12:27:50.613Z,100900.66
2023-04-30T12:30:23.026Z,100893.43
2023-04-30T12:32:50.551Z,100896.41
2023-04-30T12:35:18.975Z,100901.27
2023-04-30T12:37:47.132Z,100904.17
2023-04-30T12:40:13.914Z,100901.60
2023-04-30T12:42:44.020Z,100898.69
2023-04-30T12:45:10.963Z,100902.34
2023-04-30T12:47:39.890Z,100896.55
2023-04-30T12:50:08.680Z,100897.89
2023-04-30T12:52:35.052Z,100897.20
2023-04-30T12:55:20.684Z,100894.06
2023-04-30T12:58:13.110Z,100893.09
2023-04-30T13:00:50.237Z,100883.65
2023-04-30T13:03:21.257Z,100884.58
2023-04-30T13:05:49.866Z,100886.45
2023-04-30T13:08:17.475Z,100881.16
2023-04-30T13:10:44.691Z,100880.56
2023-04-30T13:13:11.992Z,100881.73
2023-04-30T13:15:39.660Z,100881.88
2023-04-30T13:18:09.974Z,100880.48
2023-04-30T13:20:36.387Z,100879.96
2023-04-30T13:23:03.171Z,100879.66
2023-04-30T13:25:30.438Z,100882.17
2023-04-30T13:27:56.931Z,100878.58
2023-04-30T13:30:23.499Z,100884.44
2023-04-30T13:32:51.089Z,100886.56
2023-04-30T13:35:18.624Z,100881.43
2023-04-30T13:37:44.954Z,100883.63
2023-04-30T13:40:11.491Z,100881.29
2023-04-30T13:42:38.947Z,100879.32
2023-04-30T13:45:06.232Z,100879.63
2023-04-30T13:47:32.523Z,100881.20
2023-04-30T13:50:00.282Z,100881.75
2023-04-30T13:52:26.741Z,100879.49
2023-04-30T13:54:52.974Z,100882.71
2023-04-30T13:57:19.470Z,100884.88
2023-04-30T13:59:46.141Z,100884.63
2023-04-30T14:02:12.481Z,100888.27
2023-04-30T14:04:38.844Z,100885.71
2023-04-30T14:07:05.224Z,100885.89
2023-04-30T14:09:32.431Z,100883.73
2023-04-30T14:11:59.233Z,100887.98
2023-04-30T14:14:26.243Z,100885.11
2023-04-30T14:16:52.862Z,100886.58
2023-04-30T14:19:20.682Z,100890.86
2023-04-30T14:21:47.105Z,100894.04
2023-04-30T14:24:14.961Z,100888.91
2023-04-30T14:26:42.459Z,100891.52
2023-04-30T14:29:08.826Z,100895.88
2023-04-30T14:31:35.122Z,100891.38
2023-04-30T14:34:01.421Z,100893.15
2023-04-30T14:36:27.978Z,100894.07
2023-04-30T14:38:54.332Z,100894.19
2023-04-30T14:41:21.231Z,100891.77
2023-04-30T14:43:47.632Z,100892.58
2023-04-30T14:46:14.053Z,100895.52
2023-04-30T14:48:40.543Z,100900.80
2023-04-30T14:51:07.187Z,100901.45
2023-04-30T14:53:33.483Z,100903.20
2023-04-30T14:56:00.575Z,100903.45
2023-04-30T14:58:26.908Z,100904.89
2023-04-30T15:00:53.223Z,100902.02
2023-04-30T15:03:20.430Z,100899.13
2023-04-30T15:05:48.222Z,100900.21
2023-04-30T15:08:15.755Z,100904.53
2023-04-30T15:10:42.469Z,100902.83
2023-04-30T15:13:09.165Z,100905.80
2023-04-30T15:15:36.623Z,100904.11
2023-04-30T15:18:04.926Z,100905.88
2023-04-30T15:20:31.262Z,100910.30
2023-04-30T15:22:57.786Z,100904.77
2023-04-30T15:25:24.198Z,100907.23
2023-04-30T15:27:53.538Z,100910.22
2023-04-30T15:30:22.292Z,100907.02
2023-04-30T15:32:50.204Z,100913.66
2023-04-30T15:35:17.035Z,100912.88
2023-04-30T15:37:44.120Z,100914.52
2023-04-30T15:40:14.307Z,100910.83
2023-04-30T15:42:41.216Z,100912.08
2023-04-30T15:45:08.391Z,100909.48
2023-04-30T15:47:34.739Z,100918.01
2023-04-30T15:50:01.425Z,100917.35
2023-04-30T15:52:27.701Z,100923.97
2023-04-30T15:54:54.021Z,100928.23
2023-04-30T15:57:20.962Z,100926.73
2023-04-30T15:59:47.229Z,100929.29
2023-04-30T16:02:13.612Z,100930.02
2023-04-30T16:04:40.691Z,100924.84
2023-04-30T16:07:07.081Z,100925.63
2023-04-30T16:09:33.964Z,100927.30
2023-04-30T16:12:00.301Z,100926.77
2023-04-30T16:14:26.728Z,100921.95
2023-04-30T16:16:53.081Z,100922.12
2023-04-30T16:19:19.729Z,100925.14
2023-04-30T16:21:46.197Z,100926.54
2023-04-30T16:24:15.011Z,100930.67
2023-04-30T16:26:41.262Z,100932.30
2023-04-30T16:29:07.844Z,100931.24
2023-04-30T16:31:34.403Z,100929.77
2023-04-30T16:34:00.955Z,100931.97
2023-04-30T16:36:27.381Z,100936.81
2023-04-30T16:38:53.810Z,100938.39
2023-04-30T16:41:20.629Z,100939.96
2023-04-30T16:43:46.994Z,100940.50
2023-04-30T16:46:13.320Z,100938.39
2023-04-30T16:48:40.031Z,100942.40
2023-04-30T16:51:06.891Z,100942.91
2023-04-30T16:53:33.428Z,100941.48
2023-04-30T16:55:59.893Z,100940.96
2023-04-30T16:58:26.330Z,100951.19
2023-04-30T17:00:55.414Z,100950.52
2023-04-30T17:03:23.145Z,100949.09
2023-04-30T17:05:51.830Z,100952.42
2023-04-30T17:08:19.395Z,100951.68
2023-04-30T17:10:46.861Z,100954.89
2023-04-30T17:13:13.430Z,100956.66
2023-04-30T17:15:40.308Z,100957.73
2023-04-30T17:18:08.788Z,100962.48
2023-04-30T17:20:35.222Z,100963.03
2023-04-30T17:23:01.877Z,100965.34
2023-04-30T17:25:29.004Z,100970.11
2023-04-30T17:27:55.783Z,100969.59
2023-04-30T17:30:22.126Z,100974.00
2023-04-30T17:32:48.428Z,100976.30
2023-04-30T17:35:14.746Z,100979.13
2023-04-30T17:37:41.303Z,100982.50
2023-04-30T17:40:08.291Z,100982.52
2023-04-30T17:42:34.596Z,100984.06
2023-04-30T17:45:01.461Z,100988.78
2023-04-30T17:47:27.842Z,100991.55
2023-04-30T17:49:54.320Z,100996.29
2023-04-30T17:52:20.739Z,100996.64
2023-04-30T17:54:52.895Z,101002.10
2023-04-30T17:57:19.197Z,101004.77
2023-04-30T17:59:45.750Z,101004.64
2023-04-30T18:02:12.088Z,101006.61
2023-04-30T18:04:38.482Z,101005.74
2023-04-30T18:07:04.900Z,101004.86
2023-04-30T18:09:31.513Z,101011.27
2023-04-30T18:11:59.496Z,101016.21
2023-04-30T18:14:26.604Z,101015.73
2023-04-30T18:16:52.923Z,101021.16
2023-04-30T18:19:19.938Z,101021.00
2023-04-30T18:21:46.300Z,101021.19
2023-04-30T18:24:12.605Z,101023.32
2023-04-30T18:26:38.933Z,101022.80
2023-04-30T18:29:05.659Z,101032.66
2023-04-30T18:31:32.018Z,101031.09
2023-04-30T18:33:58.330Z,101033.36
2023-04-30T18:36:24.727Z,101034.76
2023-04-30T18:38:51.310Z,101040.55
2023-04-30T18:41:17.832Z,101043.55
2023-04-30T18:43:44.234Z,101046.34
2023-04-30T18:46:10.543Z,101045.43
2023-04-30T18:48:37.536Z,101049.98
2023-04-30T18:51:03.962Z,101050.30
2023-04-30T18:53:30.279Z,101049.89
2023-04-30T18:55:57.070Z,101050.23
2023-04-30T18:58:23.383Z,101055.67
2023-04-30T19:00:49.821Z,101052.35
2023-04-30T19:03:16.450Z,101052.85
2023-04-30T19:05:43.289Z,101057.39
2023-04-30T19:08:09.548Z,101061.41
2023-04-30T19:10:35.793Z,101065.61
2023-04-30T19:13:02.156Z,101069.58
2023-04-30T19:15:30.051Z,101072.70
2023-04-30T19:17:56.932Z,101072.13
2023-04-30T19:20:23.276Z,101074.23
2023-04-30T19:22:50.502Z,101075.61
2023-04-30T19:25:17.228Z,101075.21
2023-04-30T19:27:43.777Z,101076.41
2023-04-30T19:30:10.793Z,101080.39
2023-04-30T19:32:37.202Z,101083.85
2023-04-30T19:35:04.077Z,101082.55
2023-04-30T19:37:30.884Z,101081.29
2023-04-30T19:39:57.476Z,101080.38
2023-04-30T19:42:23.872Z,101084.86
2023-04-30T19:44:53.492Z,101087.60
2023-04-30T19:47:19.933Z,101089.30
2023-04-30T19:49:46.692Z,101089.75
2023-04-30T19:52:13.654Z,101093.39
2023-04-30T19:54:44.469Z,101094.36
2023-04-30T19:57:10.737Z,101098.16
2023-04-30T19:59:36.989Z,101093.16
2023-04-30T20:02:03.335Z,101093.98
2023-04-30T20:04:29.877Z,101091.95
2023-04-30T20:06:57.628Z,101095.03
2023-04-30T20:09:24.310Z,101093.71
2023-04-30T20:11:50.950Z,101095.22
2023-04-30T20:14:17.992Z,101094.75
2023-04-30T20:16:45.303Z,101096.04
2023-04-30T20:19:13.356Z,101095.77
2023-04-30T20:21:39.834Z,101095.68
2023-04-30T20:24:06.122Z,101094.86
2023-04-30T20:26:32.557Z,101100.20
2023-04-30T20:29:00.179Z,101102.53
2023-04-30T20:31:30.430Z,101102.80
2023-04-30T20:33:56.785Z,101102.52
2023-04-30T20:36:23.072Z,101105.02
2023-04-30T20:38:52.566Z,101110.52
2023-04-30T20:41:19.045Z,101107.59
2023-04-30T20:43:45.356Z,101112.20
2023-04-30T20:46:13.117Z,101117.35
2023-04-30T20:48:40.177Z,101114.77
2023-04-30T20:51:08.426Z,101118.84
2023-04-30T20:53:35.246Z,101119.61
2023-04-30T20:56:01.590Z,101117.20
2023-04-30T20:58:28.112Z,101119.01
2023-04-30T21:00:54.432Z,101113.45
2023-04-30T21:03:20.870Z,101118.95
2023-04-30T21:05:47.830Z,101120.05
2023-04-30T21:08:14.166Z,101116.77
2023-04-30T21:10:40.926Z,101126.26
2023-04-30T21:13:08.255Z,101129.27
2023-04-30T21:15:35.622Z,101137.04
2023-04-30T21:18:02.169Z,101139.55
2023-04-30T21:20:30.512Z,101147.48
2023-04-30T21:22:57.011Z,101153.86
2023-04-30T21:25:23.297Z,101158.81
2023-04-30T21:27:49.683Z,101155.55
2023-04-30T21:30:16.261Z,101160.64
2023-04-30T21:32:46.199Z,101163.27
2023-04-30T21:35:13.630Z,101170.30
2023-04-30T21:37:40.812Z,101172.42
2023-04-30T21:40:07.776Z,101177.16
2023-04-30T21:42:34.137Z,101183.62
2023-04-30T21:45:00.402Z,101182.77
2023-04-30T21:47:26.909Z,101188.88
2023-04-30T21:49:53.514Z,101189.25
2023-04-30T21:52:19.824Z,101189.08
2023-04-30T21:54:48.297Z,101191.72
2023-04-30T21:57:15.106Z,101191.20
2023-04-30T21:59:41.501Z,101196.63
2023-04-30T22:02:22.321Z,101199.10
2023-04-30T22:04:50.168Z,101202.60
2023-04-30T22:07:16.697Z,101209.61
2023-04-30T22:09:44.031Z,101214.52
2023-04-30T22:12:10.342Z,101216.98
2023-04-30T22:14:36.646Z,101223.45
2023-04-30T22:17:03.022Z,101219.62
2023-04-30T22:19:29.301Z,101224.70
2023-04-30T22:21:55.643Z,101230.11
2023-04-30T22:24:21.870Z,101235.20
2023-04-30T22:26:48.111Z,101238.17
2023-04-30T22:29:14.447Z,101239.94
2023-04-30T22:31:41.113Z,101243.08
2023-04-30T22:34:08.569Z,101242.39
2023-04-30T22:36:34.861Z,101245.19
2023-04-30T22:39:01.317Z,101248.69
2023-04-30T22:41:27.875Z,101252.02
2023-04-30T22:43:54.265Z,101252.02
2023-04-30T22:46:20.918Z,101254.64
2023-04-30T22:48:47.295Z,101255.16
2023-04-30T22:51:13.577Z,101252.54
2023-04-30T22:53:40.049Z,101255.17
2023-04-30T22:56:06.594Z,101254.13
2023-04-30T22:58:32.866Z,101259.55
2023-04-30T23:00:59.708Z,101259.38
2023-04-30T23:03:26.288Z,101262.69
2023-04-30T23:05:52.752Z,101258.67
2023-04-30T23:08:19.028Z,101264.27
2023-04-30T23:10:45.357Z,101262.52
2023-04-30T23:13:11.679Z,101264.25
2023-04-30T23:15:37.958Z,101267.56
2023-04-30T23:18:05.677Z,101266.88
2023-04-30T23:20:32.028Z,101268.97
2023-04-30T23:22:58.295Z,101266.34
2023-04-30T23:25:24.536Z,101267.73
2023-04-30T23:27:50.900Z,101267.73
2023-04-30T23:30:17.362Z,101265.98
2023-04-30T23:32:43.625Z,101268.77
2023-04-30T23:35:10.198Z,101272.45
2023-04-30T23:37:36.507Z,101271.20
2023-04-30T23:40:06.542Z,101274.69
2023-04-30T23:42:33.019Z,101270.69
2023-04-30T23:44:59.336Z,101272.95
2023-04-30T23:47:26.617Z,101273.29
2023-04-30T23:49:53.353Z,101275.73
2023-04-30T23:52:19.776Z,101277.99
2023-04-30T23:54:46.169Z,101279.55
2023-04-30T23:57:12.423Z,101280.26
2023-04-30T23:59:38.949Z,101278.33
